Boston, MA

5:04 PM EDT on September 18, 2014 (GMT -0400)
South Boston | Change Station
CLOSE
Current Station
Personal Weather Station
Location: Boston, MA
Elevation: 33 ft
Nearby Weather Stations

Elev 33 ft 42.34 °N, 71.06 °W | Updated 11 minutes ago

Mostly Cloudy
Mostly Cloudy
70.9 °F
Feels Like 77 °F
N
11.0
Wind Variable Wind from West
Gusts 14.0 mph

Today
High -- | Low -- °F
--% Chance of Precip.
Yesterday
High -- | Low -- °F
Precip. -- in
6:27 AM 6:48 PM
Waning Crescent, 24% visible
Pressure 29.96 in
Visibility 10.0 miles
Clouds Scattered Clouds 6500 ft
Mostly Cloudy 9500 ft
Heat Index 77 °F
Dew Point 48 °F
Humidity 45%
Rainfall 0.00 in
Snow Depth Not available.
UV 1 out of 12
Pollen 4.20 out of 12
PM2.5 Moderate
Flu Activity Not available.
METAR KBOS 182054Z 03004KT 10SM SCT065 BKN095 21/10 A2996 RMK AO2 SLP144 T02060100 53003

More Conditions Fewer Conditions

Pressure 29.96 in
Visibility 10.0 miles
Clouds Scattered Clouds 6500 ft
Mostly Cloudy 9500 ft
Heat Index 77 °F
Dew Point 48 °F
Humidity 45%
Rainfall 0.00 in
Snow Depth Not available.
UV 1 out of 12
Pollen 4.20 out of 12
PM2.5 Moderate
Flu Activity Not available.
METAR KBOS 182054Z 03004KT 10SM SCT065 BKN095 21/10 A2996 RMK AO2 SLP144 T02060100 53003

More Conditions Fewer Conditions

10-Day Weather Forecast

Almanac

Astronomy

Sep. 18, 2014 Rise Set
Actual Time 6:27 AM EDT 6:48 PM EDT
Civil Twilight 5:59 AM EDT 7:16 PM EDT
Nautical Twilight 5:25 AM EDT 7:49 PM EDT
Astronomical Twilight 4:51 AM EDT 8:23 PM EDT
Moon 1:11 AM EDT 3:42 PM EDT
Length of Visible Light 13h 17m
Length of Day
12h 21m
Tomorrow will be 2m 49s shorter.
Waning Crescent, 24% of the Moon is Illuminated
Today
Waning Crescent
Sep 24
New
Oct 1
First Quarter
Oct 8
Full
Oct 15
Last Quarter

Today's Extremes

State Highs State Lows

Community

WunderPhotos

Upload Photos

1,754,444 photos uploaded!

WunderBlogs® & News

By Dr. Jeff Masters
Director of Meteorology, Weather Underground
By Kari Strenfel
Meteorologist, Weather Underground
By Christopher C. Burt
Weather Historian, Weather Underground
September 18, 2014
September 18, 2014
September 18, 2014

Nearby

Air Quality

  Air Quality AQ Index Pollutant
Yesterday Good
PM2.5
Yesterday Good
OZONE
Current Moderate
PM2.5
Thursday Good
PM2.5
Thursday Good
OZONE
Friday Good
PM2.5
Friday Good
OZONE

Snow Depth

Station Depth Elevation
No new snow has been reported.

Earthquake Activity

City Distance Mag. Time & Date
No recent earthquake activity has been reported nearby.
Minimum magnitude displayed is 2.5.

Coastal Water Temperatures

Place Temperature
Boston, MA 63.0 °F
Providence, RI 70.0 °F
Fall River, MA 71.1 °F
Conimicut Light, RI 69.1 °F

Nearby Weather Stations